Time;durP1;ratioP1;P1;durP2;ratioP2;P2;SDS_P1;SDS_P2;PMS_P1;PMS_P2;Temp;Humidity;BMP_temperature;BMP_pressure;BME280_temperature;BME280_humidity;BME280_pressure;Samples;Min_cycle;Max_cycle;Signal;HPM_P1;HPM_P2
2021/09/13 00:00:36;;;;;;;6.00;4.80;;;;;;;16.71;96.08;155654.03;5032166;28;20918;-80
2021/09/13 00:03:14;;;;;;;5.27;4.77;;;;;;;16.70;96.25;155652.78;5019350;28;20457;-80
2021/09/13 00:05:50;;;;;;;4.80;4.40;;;;;;;16.72;95.71;155657.97;5025395;28;20447;-80
2021/09/13 00:08:27;;;;;;;4.80;4.40;;;;;;;16.72;95.79;155656.66;5033695;28;20452;-80
2021/09/13 00:11:03;;;;;;;6.17;4.70;;;;;;;16.70;96.44;155651.47;5029610;28;20455;-80
2021/09/13 00:13:39;;;;;;;6.03;4.20;;;;;;;16.66;97.65;155642.34;5015392;28;20476;-80
2021/09/13 00:16:15;;;;;;;5.53;5.03;;;;;;;16.59;98.51;155624.16;5016011;28;20950;-79
2021/09/13 00:18:50;;;;;;;4.30;3.90;;;;;;;16.55;97.88;155613.72;5011533;28;20523;-79
2021/09/13 00:21:26;;;;;;;7.33;4.77;;;;;;;16.50;98.60;155600.66;5014115;28;20440;-79
2021/09/13 00:24:03;;;;;;;5.73;4.97;;;;;;;16.44;99.45;155586.38;5014687;28;20463;-79
2021/09/13 00:26:40;;;;;;;5.30;4.80;;;;;;;16.42;99.16;155581.16;5017401;28;20452;-79
2021/09/13 00:29:17;;;;;;;5.77;5.20;;;;;;;16.41;98.65;155578.56;5029889;28;20462;-79
2021/09/13 00:31:53;;;;;;;5.20;4.50;;;;;;;16.40;97.85;155574.66;5014966;28;20476;-79
2021/09/13 00:34:33;;;;;;;5.07;4.60;;;;;;;16.38;97.77;155570.78;5024968;28;20448;-79
2021/09/13 00:37:10;;;;;;;4.30;3.90;;;;;;;16.36;97.46;155564.28;5016603;28;20539;-80
2021/09/13 00:39:48;;;;;;;5.10;4.53;;;;;;;16.33;97.99;155557.78;5016354;28;20439;-79
2021/09/13 00:42:26;;;;;;;5.00;4.53;;;;;;;16.31;99.72;155551.25;5023662;28;20488;-79
2021/09/13 00:45:04;;;;;;;4.83;4.37;;;;;;;16.30;98.18;155548.66;5025724;28;20483;-79
2021/09/13 00:47:39;;;;;;;5.10;4.60;;;;;;;16.27;98.26;155542.16;5016501;28;20460;-79
2021/09/13 00:50:15;;;;;;;5.27;4.80;;;;;;;16.25;97.88;155536.97;5020290;28;20464;-79
2021/09/13 00:52:52;;;;;;;5.00;4.23;;;;;;;16.24;97.97;155534.34;5016197;28;20555;-79
2021/09/13 00:55:30;;;;;;;4.67;4.27;;;;;;;16.19;98.57;155520.03;5023713;28;20471;-79
2021/09/13 00:58:07;;;;;;;4.37;3.97;;;;;;;16.19;98.31;155520.03;5019268;28;20472;-79
2021/09/13 01:00:43;;;;;;;4.40;4.00;;;;;;;16.20;98.08;155522.66;5014340;28;20444;-79
2021/09/13 01:03:18;;;;;;;5.27;4.77;;;;;;;16.20;98.59;155522.66;5030572;28;20447;-79
2021/09/13 01:05:54;;;;;;;4.53;4.13;;;;;;;16.23;98.87;155530.47;5006630;28;20966;-79
2021/09/13 01:08:30;;;;;;;4.67;4.27;;;;;;;16.24;98.78;155533.06;5020216;28;20962;-79
2021/09/13 01:11:07;;;;;;;5.60;4.70;;;;;;;16.24;98.13;155534.34;5028363;28;20468;-79
2021/09/13 01:13:43;;;;;;;5.00;4.30;;;;;;;16.25;98.23;155536.97;5016548;28;20459;-79
2021/09/13 01:16:19;;;;;;;5.00;4.50;;;;;;;16.27;98.21;155542.16;4998340;28;20954;-80
2021/09/13 01:18:56;;;;;;;5.20;4.70;;;;;;;16.28;98.13;155543.47;5002303;28;20452;-79
2021/09/13 01:21:32;;;;;;;5.10;4.60;;;;;;;16.28;98.65;155543.47;4999292;28;20958;-80
2021/09/13 01:24:10;;;;;;;6.57;5.80;;;;;;;16.26;98.76;155538.25;5025201;28;20788;-79
2021/09/13 01:26:46;;;;;;;8.13;6.00;;;;;;;16.24;98.32;155533.06;4996767;28;20444;-79
2021/09/13 01:29:26;;;;;;;7.07;6.37;;;;;;;16.19;98.77;155521.38;4998991;28;20492;-79
2021/09/13 01:32:02;;;;;;;6.37;5.77;;;;;;;16.16;99.42;155512.25;5027913;28;20574;-79
2021/09/13 01:34:46;;;;;;;8.10;5.20;;;;;;;16.09;99.47;155494.06;5008948;28;20873;-79
2021/09/13 01:37:24;;;;;;;5.60;5.10;;;;;;;16.02;100.00;155477.13;5015934;28;20460;-79
2021/09/13 01:40:02;;;;;;;6.03;5.43;;;;;;;15.97;100.00;155462.81;5000379;28;20789;-79
2021/09/13 01:42:38;;;;;;;6.37;5.23;;;;;;;15.93;100.00;155452.44;5025039;28;20456;-79
2021/09/13 01:45:14;;;;;;;6.50;5.70;;;;;;;15.90;100.00;155444.63;5004747;28;20838;-80
2021/09/13 01:47:54;;;;;;;5.43;4.93;;;;;;;15.82;100.00;155425.13;5010460;28;20486;-79
2021/09/13 01:50:30;;;;;;;6.20;5.40;;;;;;;15.78;100.00;155416.03;5022670;28;20471;-79
2021/09/13 01:53:05;;;;;;;5.07;4.57;;;;;;;15.74;100.00;155404.34;5018392;28;20460;-79
2021/09/13 01:55:43;;;;;;;5.80;5.07;;;;;;;15.73;100.00;155401.72;5022720;28;20436;-79
2021/09/13 01:58:21;;;;;;;5.70;5.10;;;;;;;15.66;100.00;155384.84;5013887;28;20452;-79
2021/09/13 02:00:56;;;;;;;7.20;5.10;;;;;;;15.70;99.83;155395.22;4999889;28;20448;-79
2021/09/13 02:03:32;;;;;;;5.50;4.90;;;;;;;15.71;99.26;155397.84;5011050;28;20946;-80
2021/09/13 02:06:08;;;;;;;5.80;5.30;;;;;;;15.72;98.86;155400.47;5001819;28;20437;-79
2021/09/13 02:08:44;;;;;;;5.80;5.30;;;;;;;15.69;98.68;155392.66;5012688;28;20455;-79
2021/09/13 02:11:21;;;;;;;7.23;4.43;;;;;;;15.71;100.00;155397.84;5014675;28;20486;-79
2021/09/13 02:13:56;;;;;;;5.77;5.17;;;;;;;15.66;99.08;155383.53;5011765;28;20438;-79
2021/09/13 02:16:32;;;;;;;6.00;5.50;;;;;;;15.64;99.80;155379.66;5025915;28;20451;-80
2021/09/13 02:19:08;;;;;;;6.23;5.63;;;;;;;15.57;99.49;155361.44;5025100;28;20451;-79
2021/09/13 02:21:44;;;;;;;6.30;5.00;;;;;;;15.54;99.89;155353.63;5014388;28;20963;-80
2021/09/13 02:24:21;;;;;;;6.10;5.50;;;;;;;15.50;100.00;155343.25;5011201;28;20447;-80
2021/09/13 02:26:59;;;;;;;5.57;5.07;;;;;;;15.47;100.00;155335.44;4995115;28;20459;-79
2021/09/13 02:29:34;;;;;;;5.63;5.10;;;;;;;15.42;100.00;155322.41;5011665;28;20470;-79
2021/09/13 02:32:10;;;;;;;6.17;5.60;;;;;;;15.39;100.00;155313.28;4997572;28;20487;-79
2021/09/13 02:34:47;;;;;;;5.97;5.37;;;;;;;15.36;100.00;155306.78;5018127;28;20449;-79
2021/09/13 02:37:22;;;;;;;6.40;5.80;;;;;;;15.31;100.00;155293.78;4999359;28;20456;-79
2021/09/13 02:39:59;;;;;;;6.77;6.17;;;;;;;15.30;100.00;155289.91;5002584;28;20456;-79
2021/09/13 02:42:36;;;;;;;7.57;6.50;;;;;;;15.27;100.00;155282.13;5004315;28;20452;-79
2021/09/13 02:45:12;;;;;;;6.37;5.77;;;;;;;15.27;100.00;155283.44;5020414;28;20450;-79
2021/09/13 02:47:48;;;;;;;8.90;6.03;;;;;;;15.27;100.00;155283.44;4996854;28;20478;-79
2021/09/13 02:50:24;;;;;;;7.17;6.40;;;;;;;15.27;100.00;155284.69;5000483;28;20447;-79
2021/09/13 02:53:00;;;;;;;7.60;6.80;;;;;;;15.16;100.00;155256.13;5017280;28;20459;-79
2021/09/13 02:55:36;;;;;;;7.70;7.00;;;;;;;15.11;100.00;155241.84;5011381;28;21641;-79
2021/09/13 02:58:14;;;;;;;6.80;6.20;;;;;;;15.09;100.00;155237.91;5015462;28;20451;-79
2021/09/13 03:00:50;;;;;;;6.97;6.27;;;;;;;15.12;100.00;155244.41;5017922;28;20858;-79
2021/09/13 03:03:25;;;;;;;6.43;5.83;;;;;;;15.13;100.00;155247.03;4996406;28;20459;-79
2021/09/13 03:06:01;;;;;;;8.40;6.30;;;;;;;15.13;100.00;155248.34;5010966;28;20792;-79
2021/09/13 03:08:37;;;;;;;7.43;6.73;;;;;;;15.11;100.00;155241.84;5025698;28;20445;-79
2021/09/13 03:11:13;;;;;;;8.00;7.20;;;;;;;15.08;100.00;155234.03;5014783;28;20506;-79
2021/09/13 03:13:50;;;;;;;7.90;6.80;;;;;;;15.03;100.00;155221.03;5011730;28;20444;-79
2021/09/13 03:16:26;;;;;;;8.07;6.20;;;;;;;15.00;100.00;155213.25;5004667;28;20447;-79
2021/09/13 03:19:04;;;;;;;7.27;6.57;;;;;;;15.01;100.00;155215.88;5000710;28;20443;-79
2021/09/13 03:21:40;;;;;;;7.80;7.10;;;;;;;15.03;100.00;155222.34;4999653;28;20435;-79
2021/09/13 03:24:18;;;;;;;6.80;5.93;;;;;;;15.07;100.00;155231.41;5021721;28;20447;-79
2021/09/13 03:26:54;;;;;;;7.27;6.57;;;;;;;15.11;100.00;155243.16;5010299;28;20463;-79
2021/09/13 03:29:32;;;;;;;7.40;6.70;;;;;;;15.13;100.00;155247.03;5010617;28;20486;-80
2021/09/13 03:32:09;;;;;;;7.13;6.47;;;;;;;15.11;100.00;155241.84;4995603;28;20475;-79
2021/09/13 03:34:45;;;;;;;7.90;7.10;;;;;;;15.11;100.00;155241.84;4997350;28;20460;-79
2021/09/13 03:37:21;;;;;;;7.60;6.50;;;;;;;15.11;100.00;155241.84;5022218;28;20857;-80
2021/09/13 03:39:56;;;;;;;8.83;7.93;;;;;;;15.10;100.00;155239.22;4995710;28;20462;-79
2021/09/13 03:42:32;;;;;;;8.77;7.93;;;;;;;15.10;100.00;155240.53;5013467;28;20456;-79
2021/09/13 03:45:10;;;;;;;9.10;8.23;;;;;;;15.09;100.00;155237.91;5016587;28;20525;-79
2021/09/13 03:48:05;;;;;;;10.10;9.10;;;;;;;15.12;100.00;155245.72;5017554;28;20519;-79
2021/09/13 03:50:44;;;;;;;8.90;8.00;;;;;;;15.15;100.00;155253.53;5019733;28;20539;-80
2021/09/13 03:53:20;;;;;;;9.93;8.93;;;;;;;15.15;100.00;155253.53;5011131;28;20937;-79
2021/09/13 03:55:56;;;;;;;10.70;8.37;;;;;;;15.18;100.00;155260.00;4995635;28;20454;-79
2021/09/13 03:58:32;;;;;;;9.80;8.80;;;;;;;15.20;100.00;155265.19;5001676;28;20458;-79
2021/09/13 04:01:09;;;;;;;8.90;8.00;;;;;;;15.20;100.00;155265.19;5025896;28;20451;-79
2021/09/13 04:03:46;;;;;;;8.70;7.80;;;;;;;15.22;100.00;155271.69;5001859;28;20501;-79
2021/09/13 04:06:25;;;;;;;10.80;9.63;;;;;;;15.27;100.00;155282.13;5013164;28;20447;-79
2021/09/13 04:12:46;;;;;;;9.13;8.17;;;;;;;15.27;100.00;155282.13;5002427;28;20508;-79
2021/09/13 04:15:39;;;;;;;9.93;7.83;;;;;;;15.25;100.00;155279.50;4997776;28;20448;-79
2021/09/13 04:18:35;;;;;;;11.87;10.30;;;;;;;15.19;100.00;155263.94;5019335;28;20449;-79
2021/09/13 04:21:37;;;;;;;10.70;7.90;;;;;;;15.12;100.00;155244.41;5003145;28;20491;-79
2021/09/13 04:24:32;;;;;;;8.90;8.00;;;;;;;15.08;100.00;155235.34;5018472;28;20446;-80
2021/09/13 04:27:20;;;;;;;9.77;8.20;;;;;;;15.05;100.00;155226.22;4996777;28;20453;-79
2021/09/13 04:30:12;;;;;;;11.30;8.27;;;;;;;15.04;100.00;155224.94;5027106;28;20446;-79
2021/09/13 04:33:05;;;;;;;11.63;7.67;;;;;;;15.04;100.00;155224.94;5003247;28;20586;-79
2021/09/13 04:36:11;;;;;;;9.90;8.90;;;;;;;15.03;100.00;155221.03;5007116;28;20444;-80
2021/09/13 04:39:19;;;;;;;9.23;8.33;;;;;;;14.93;100.00;155196.34;5011345;28;20471;-79
2021/09/13 04:42:14;;;;;;;9.03;8.13;;;;;;;14.87;100.00;155180.78;5019338;28;20455;-79
2021/09/13 04:45:09;;;;;;;8.47;7.50;;;;;;;14.81;100.00;155165.19;5023521;28;20949;-79
2021/09/13 04:48:04;;;;;;;8.43;7.47;;;;;;;14.77;100.00;155154.81;5028327;28;20477;-79
2021/09/13 04:51:09;;;;;;;8.93;8.03;;;;;;;14.70;100.00;155136.59;5026386;28;20458;-79
2021/09/13 04:54:06;;;;;;;9.03;8.13;;;;;;;14.73;100.00;155144.38;5015478;28;20970;-79
2021/09/13 04:56:42;;;;;;;9.47;7.87;;;;;;;14.80;100.00;155162.56;5018801;28;20463;-86
2021/09/13 04:59:17;;;;;;;8.10;7.30;;;;;;;14.81;100.00;155163.88;5032233;28;20831;-80
2021/09/13 05:01:53;;;;;;;9.40;8.50;;;;;;;14.82;100.00;155166.47;4999710;28;20447;-80
2021/09/13 05:04:30;;;;;;;8.50;7.70;;;;;;;14.83;100.00;155169.06;4998271;28;20443;-80
2021/09/13 05:07:07;;;;;;;7.60;6.90;;;;;;;14.87;100.00;155179.47;5010035;28;20454;-80
2021/09/13 05:09:44;;;;;;;8.77;7.90;;;;;;;14.87;100.00;155180.78;5012309;28;20427;-80
2021/09/13 05:12:20;;;;;;;8.03;7.23;;;;;;;14.89;100.00;155184.66;4997591;28;20565;-80
2021/09/13 05:14:55;;;;;;;9.60;7.43;;;;;;;14.89;100.00;155184.66;5016770;28;20907;-80
2021/09/13 05:21:49;;;;;;;8.47;7.67;;;;;;;14.89;100.00;155184.66;5005956;28;20564;-79
2021/09/13 05:24:27;;;;;;;8.93;7.93;;;;;;;14.81;100.00;155163.88;5011220;28;20805;-80
2021/09/13 05:27:09;;;;;;;8.00;7.20;;;;;;;14.80;100.00;155161.31;5001259;28;20840;-80
2021/09/13 05:29:44;;;;;;;8.60;7.70;;;;;;;14.81;100.00;155165.19;4997851;28;20454;-79
2021/09/13 05:32:20;;;;;;;8.23;7.37;;;;;;;14.81;100.00;155165.19;5013541;28;20864;-79
2021/09/13 05:34:56;;;;;;;8.63;7.67;;;;;;;14.85;100.00;155174.28;5023205;28;20446;-80
2021/09/13 05:37:31;;;;;;;9.57;8.20;;;;;;;14.82;100.00;155167.78;5012469;28;20553;-79
2021/09/13 05:40:08;;;;;;;9.00;8.10;;;;;;;14.84;100.00;155172.97;5035623;28;20451;-80
2021/09/13 05:42:46;;;;;;;8.43;7.63;;;;;;;14.91;100.00;155189.84;5032104;28;20558;-80
2021/09/13 05:45:24;;;;;;;8.80;8.00;;;;;;;14.93;100.00;155196.34;5003065;28;20467;-79
2021/09/13 05:48:00;;;;;;;9.03;7.90;;;;;;;14.97;100.00;155205.44;5014248;28;20479;-79
2021/09/13 05:50:36;;;;;;;9.70;8.70;;;;;;;15.04;100.00;155223.63;5019939;28;20451;-80
2021/09/13 05:53:11;;;;;;;10.10;8.83;;;;;;;15.04;100.00;155223.63;4997959;28;20831;-80
2021/09/13 05:55:47;;;;;;;9.60;8.70;;;;;;;15.05;100.00;155227.53;4995410;28;20542;-79
2021/09/13 05:58:24;;;;;;;10.70;9.10;;;;;;;15.09;100.00;155236.66;5021437;28;20838;-80
2021/09/13 06:01:02;;;;;;;11.03;9.00;;;;;;;15.17;100.00;155257.41;5013357;28;20440;-80
2021/09/13 06:03:38;;;;;;;8.50;7.80;;;;;;;15.22;100.00;155271.69;5002618;28;20468;-80
2021/09/13 06:06:23;;;;;;;8.83;7.93;;;;;;;15.27;100.00;155284.69;5014733;28;20439;-80
2021/09/13 06:08:59;;;;;;;13.03;8.40;;;;;;;15.31;100.00;155292.50;5011603;28;20808;-80
2021/09/13 06:11:34;;;;;;;9.70;8.73;;;;;;;15.42;100.00;155322.41;5044933;28;20467;-80
2021/09/13 06:14:12;;;;;;;11.93;8.97;;;;;;;15.46;100.00;155332.81;5000408;28;20840;-80
2021/09/13 06:16:48;;;;;;;9.87;8.97;;;;;;;15.49;100.00;155340.63;4996159;28;20464;-80
2021/09/13 06:19:24;;;;;;;9.83;8.83;;;;;;;15.54;100.00;155353.63;5001130;28;20945;-80
2021/09/13 06:21:59;;;;;;;11.37;9.50;;;;;;;15.59;100.00;155366.66;5009551;28;20464;-80
2021/09/13 06:24:39;;;;;;;9.33;8.27;;;;;;;15.68;100.00;155390.03;5004945;28;20456;-80
2021/09/13 06:27:16;;;;;;;9.60;8.80;;;;;;;15.75;100.00;155406.97;5006513;28;20448;-80
2021/09/13 06:29:54;;;;;;;11.10;10.00;;;;;;;15.93;100.00;155453.75;5039608;28;20449;-80
2021/09/13 06:32:31;;;;;;;9.70;8.80;;;;;;;16.24;100.00;155533.06;5036104;28;20468;-80
2021/09/13 06:35:07;;;;;;;11.43;9.77;;;;;;;16.49;100.00;155598.09;5013182;28;20452;-80
2021/09/13 06:38:02;;;;;;;8.90;8.20;;;;;;;16.81;100.00;155681.38;5011209;28;20579;-80
2021/09/13 06:40:39;;;;;;;7.83;7.13;;;;;;;17.08;100.00;155749.06;5001205;28;20934;-81
2021/09/13 06:43:16;;;;;;;8.37;7.57;;;;;;;17.41;100.00;155836.25;5012129;28;20436;-81
2021/09/13 06:46:09;;;;;;;7.70;7.00;;;;;;;17.69;99.47;155907.88;5010847;28;20433;-81
2021/09/13 06:48:46;;;;;;;6.70;6.10;;;;;;;17.98;96.37;155983.38;4994460;28;20859;-81
2021/09/13 06:51:22;;;;;;;10.50;5.90;;;;;;;18.30;96.49;156065.44;5020513;28;20455;-81
2021/09/13 06:53:58;;;;;;;7.43;6.60;;;;;;;18.50;90.31;156116.31;5013090;28;20449;-81
2021/09/13 06:56:34;;;;;;;6.97;6.30;;;;;;;18.76;90.84;156184.03;5027654;28;20517;-83
2021/09/13 06:59:09;;;;;;;5.80;5.30;;;;;;;19.05;90.26;156258.28;5023487;28;20456;-82
2021/09/13 07:01:46;;;;;;;6.93;6.10;;;;;;;19.20;86.16;156298.69;5022035;28;20961;-82
2021/09/13 07:04:23;;;;;;;7.90;6.07;;;;;;;19.51;86.54;156376.97;5012287;28;20464;-82
2021/09/13 07:06:59;;;;;;;6.80;5.30;;;;;;;19.74;84.72;156438.22;5021849;28;20527;-81
2021/09/13 07:09:36;;;;;;;5.63;5.13;;;;;;;20.03;83.39;156513.88;5016863;28;20547;-82
2021/09/13 07:12:12;;;;;;;5.97;5.43;;;;;;;20.27;80.83;156575.19;5022477;28;20504;-82
2021/09/13 07:14:48;;;;;;;5.97;5.37;;;;;;;20.51;80.92;156636.50;5018946;28;20463;-82
2021/09/13 07:17:25;;;;;;;6.07;5.47;;;;;;;20.49;78.68;156632.56;5020694;28;20471;-82
2021/09/13 07:20:01;;;;;;;6.10;5.50;;;;;;;20.57;79.15;156653.44;5012267;28;20815;-82
2021/09/13 07:22:36;;;;;;;6.50;5.90;;;;;;;20.62;79.71;156666.47;5022484;28;20443;-82
2021/09/13 07:25:12;;;;;;;6.33;5.77;;;;;;;20.88;78.32;156733.06;5024493;28;20451;-82
2021/09/13 07:27:51;;;;;;;6.17;5.57;;;;;;;20.89;77.19;156734.38;5014017;28;20466;-82
2021/09/13 07:30:27;;;;;;;6.23;5.60;;;;;;;21.24;75.05;156827.03;5015215;28;20543;-82
2021/09/13 07:33:04;;;;;;;5.47;4.97;;;;;;;20.98;74.58;156757.81;4994785;28;20479;-82
2021/09/13 07:35:40;;;;;;;10.53;5.27;;;;;;;21.15;75.15;156802.25;5015917;28;20446;-81
2021/09/13 07:38:15;;;;;;;5.23;4.80;;;;;;;21.65;73.35;156932.78;5025484;28;20480;-81
2021/09/13 07:40:51;;;;;;;6.17;5.60;;;;;;;21.84;73.81;156982.38;5017983;28;20438;-82
2021/09/13 07:43:26;;;;;;;5.30;4.80;;;;;;;21.74;71.98;156956.25;5021872;28;21330;-82
2021/09/13 07:46:03;;;;;;;5.53;5.03;;;;;;;21.85;72.61;156985.00;5017791;28;20436;-82
2021/09/13 07:48:40;;;;;;;6.13;5.63;;;;;;;21.96;72.03;157011.16;5023188;28;20483;-82
2021/09/13 07:51:15;;;;;;;5.33;4.83;;;;;;;21.89;72.82;156992.88;5023710;28;20843;-81
2021/09/13 07:53:51;;;;;;;5.77;5.17;;;;;;;21.88;71.43;156990.25;5027036;28;20487;-75
2021/09/13 07:56:26;;;;;;;5.83;4.27;;;;;;;21.88;71.65;156991.56;5026812;28;20440;-74
2021/09/13 07:59:03;;;;;;;5.13;4.63;;;;;;;21.95;71.38;157008.56;5028106;28;20942;-75
2021/09/13 08:01:39;;;;;;;5.00;4.60;;;;;;;22.09;70.49;157046.41;5020581;28;20623;-75
2021/09/13 08:04:18;;;;;;;5.03;4.53;;;;;;;22.35;69.91;157114.31;5019079;28;20447;-74
2021/09/13 08:06:54;;;;;;;5.57;5.07;;;;;;;22.54;70.16;157161.34;5028054;28;20805;-75
2021/09/13 08:09:41;;;;;;;5.20;4.70;;;;;;;22.65;68.24;157191.47;5017828;28;20472;-75
2021/09/13 08:12:16;;;;;;;4.77;4.30;;;;;;;22.85;68.18;157243.69;5010790;28;20499;-75
2021/09/13 08:14:53;;;;;;;5.67;4.40;;;;;;;22.90;68.69;157256.75;5017960;28;20464;-75
2021/09/13 08:17:29;;;;;;;5.30;4.63;;;;;;;22.91;68.71;157258.06;5015393;28;20529;-75
2021/09/13 08:20:08;;;;;;;5.80;5.30;;;;;;;22.96;68.24;157272.44;5018513;28;20443;-75
2021/09/13 08:22:43;;;;;;;4.90;4.20;;;;;;;23.28;66.06;157353.47;5023499;28;20440;-75
2021/09/13 08:25:20;;;;;;;4.67;4.27;;;;;;;23.44;66.96;157395.34;5020349;28;20792;-75
2021/09/13 08:28:12;;;;;;;5.00;4.00;;;;;;;23.44;67.11;157395.34;5023171;28;20804;-75
2021/09/13 08:30:48;;;;;;;5.67;5.17;;;;;;;23.41;65.79;157387.50;5029442;28;20535;-75
2021/09/13 08:33:24;;;;;;;5.80;5.20;;;;;;;23.45;67.26;157399.28;5030955;28;20503;-74
2021/09/13 08:36:01;;;;;;;6.53;5.27;;;;;;;23.30;66.20;157358.72;5016522;28;20428;-75
2021/09/13 08:38:36;;;;;;;5.90;5.30;;;;;;;23.45;67.11;157399.28;5012933;28;20707;-75
2021/09/13 08:41:11;;;;;;;6.20;5.23;;;;;;;23.55;66.12;157424.09;5007606;28;20444;-75
2021/09/13 08:43:48;;;;;;;5.27;4.77;;;;;;;23.36;66.87;157374.38;5019438;28;20452;-74
2021/09/13 08:46:27;;;;;;;4.60;4.20;;;;;;;23.41;66.78;157388.81;5015215;28;20448;-75
2021/09/13 08:49:05;;;;;;;6.63;5.67;;;;;;;23.49;65.69;157409.72;4997113;28;20487;-74
2021/09/13 08:51:42;;;;;;;5.10;4.60;;;;;;;23.34;66.46;157369.16;5044845;28;20455;-75
2021/09/13 08:54:18;;;;;;;5.67;4.60;;;;;;;23.37;66.40;157378.38;5049415;28;20482;-74
2021/09/13 08:56:57;;;;;;;4.77;4.37;;;;;;;23.03;66.64;157290.72;5045846;28;20441;-75
2021/09/13 08:59:37;;;;;;;6.17;4.70;;;;;;;23.16;67.23;157323.44;5027579;28;20442;-74
2021/09/13 09:02:14;;;;;;;5.93;5.10;;;;;;;23.21;66.04;157336.50;5018165;28;20449;-75
2021/09/13 09:04:49;;;;;;;5.97;5.17;;;;;;;23.01;65.67;157285.50;5035173;28;20453;-75
2021/09/13 09:07:28;;;;;;;5.57;4.67;;;;;;;22.96;67.49;157272.44;5015004;28;20480;-74
2021/09/13 09:10:11;;;;;;;5.50;5.00;;;;;;;23.00;65.49;157282.94;5033529;28;20936;-75
2021/09/13 09:12:58;;;;;;;5.10;4.60;;;;;;;22.64;67.68;157188.81;5022045;28;20468;-75
2021/09/13 09:15:34;;;;;;;4.60;4.20;;;;;;;22.40;67.75;157126.06;5017436;28;20506;-74
2021/09/13 09:18:09;;;;;;;5.00;4.50;;;;;;;22.33;68.50;157107.78;5015922;28;20444;-75
2021/09/13 09:20:45;;;;;;;5.53;5.03;;;;;;;22.50;68.25;157152.22;5017195;28;20459;-75
2021/09/13 09:23:22;;;;;;;6.37;5.30;;;;;;;22.37;66.93;157118.28;5021370;28;20441;-74
2021/09/13 09:26:11;;;;;;;6.30;5.30;;;;;;;22.39;67.44;157123.47;5020563;28;20455;-75
2021/09/13 09:28:46;;;;;;;5.63;4.87;;;;;;;22.47;68.41;157143.06;5012372;28;20457;-75
2021/09/13 09:31:35;;;;;;;6.20;5.40;;;;;;;22.31;68.73;157102.59;5022838;28;20459;-75
2021/09/13 09:34:12;;;;;;;5.57;5.00;;;;;;;22.31;68.73;157102.59;5023800;28;20485;-74
2021/09/13 09:37:04;;;;;;;5.30;4.90;;;;;;;22.27;69.10;157092.13;5012999;28;20417;-75
2021/09/13 09:39:44;;;;;;;6.23;5.57;;;;;;;22.41;68.96;157130.00;5013821;28;20782;-75
2021/09/13 09:42:30;;;;;;;5.30;4.80;;;;;;;22.31;69.07;157102.59;5014576;28;20979;-74
2021/09/13 09:45:08;;;;;;;4.97;4.10;;;;;;;22.52;67.46;157157.44;5013559;28;20500;-74
2021/09/13 09:47:44;;;;;;;4.80;4.40;;;;;;;22.56;67.04;157167.88;5012857;28;20413;-74
2021/09/13 09:50:29;;;;;;;5.67;5.07;;;;;;;22.52;67.29;157157.44;5028769;28;20788;-74
2021/09/13 09:53:15;;;;;;;6.43;4.80;;;;;;;22.56;67.44;157166.59;5012973;28;20874;-74
2021/09/13 09:55:53;;;;;;;5.30;4.80;;;;;;;22.53;68.28;157160.03;5015538;28;20532;-76
2021/09/13 09:58:29;;;;;;;4.70;4.20;;;;;;;22.47;67.88;157144.38;5018852;28;20441;-74
2021/09/13 10:01:04;;;;;;;5.43;3.90;;;;;;;22.68;66.41;157199.31;5002595;28;20440;-74
2021/09/13 10:03:40;;;;;;;4.80;4.40;;;;;;;22.45;66.12;157139.16;5012447;28;20432;-74
2021/09/13 10:06:18;;;;;;;5.70;5.20;;;;;;;22.16;67.95;157064.69;5013296;28;20421;-75
2021/09/13 10:09:00;;;;;;;7.27;4.83;;;;;;;22.10;68.04;157047.72;5011986;28;20527;-75
2021/09/13 10:11:39;;;;;;;5.60;4.60;;;;;;;21.99;67.71;157019.00;5012702;28;20417;-74
2021/09/13 10:14:17;;;;;;;5.67;4.60;;;;;;;21.95;68.38;157009.84;5012474;28;20784;-74
2021/09/13 10:16:53;;;;;;;5.00;4.60;;;;;;;22.08;69.15;157042.53;5017396;28;20461;-74
2021/09/13 10:19:29;;;;;;;5.30;4.80;;;;;;;22.45;68.33;157140.44;5013790;28;20487;-74
2021/09/13 10:22:05;;;;;;;5.27;4.80;;;;;;;22.54;68.35;157162.66;5025919;28;20439;-75
2021/09/13 10:24:41;;;;;;;4.90;4.43;;;;;;;22.57;66.99;157170.50;4997048;28;20448;-75
2021/09/13 10:27:20;;;;;;;6.10;5.50;;;;;;;22.39;67.69;157124.81;5027692;28;20459;-74
2021/09/13 10:30:21;;;;;;;6.23;5.40;;;;;;;22.27;67.66;157092.13;5011114;28;20452;-75
2021/09/13 10:33:11;;;;;;;6.30;5.40;;;;;;;22.11;69.23;157051.63;5005834;28;20481;-75
2021/09/13 10:35:54;;;;;;;5.87;5.30;;;;;;;22.20;68.35;157075.16;5012598;28;20421;-75
2021/09/13 10:38:43;;;;;;;6.10;5.60;;;;;;;22.12;70.01;157052.94;5019711;28;20440;-74
2021/09/13 10:41:52;;;;;;;6.53;5.30;;;;;;;22.19;69.53;157072.53;5013246;28;20421;-74
2021/09/13 10:44:35;;;;;;;7.80;5.00;;;;;;;22.49;69.16;157148.28;5028038;28;20453;-74
2021/09/13 10:47:12;;;;;;;6.40;5.80;;;;;;;22.53;67.54;157160.03;5011659;28;20433;-75
2021/09/13 10:50:15;;;;;;;5.33;4.83;;;;;;;22.49;69.49;157148.28;5022601;28;20478;-75
2021/09/13 10:52:51;;;;;;;5.10;4.60;;;;;;;22.49;68.99;157149.59;5010875;28;20526;-74
2021/09/13 10:55:38;;;;;;;6.13;5.63;;;;;;;22.46;67.93;157141.75;4996685;28;20489;-74
2021/09/13 10:58:16;;;;;;;5.80;5.30;;;;;;;22.37;69.24;157118.28;5012605;28;20452;-74
2021/09/13 11:01:01;;;;;;;6.97;6.20;;;;;;;22.50;68.83;157152.22;5027476;28;20437;-74
2021/09/13 11:03:41;;;;;;;5.60;5.03;;;;;;;22.48;69.02;157145.69;5025021;28;20452;-74
2021/09/13 11:06:47;;;;;;;6.40;5.80;;;;;;;22.46;69.09;157141.75;5010082;28;20935;-74
2021/09/13 11:09:24;;;;;;;9.30;5.73;;;;;;;22.33;68.31;157109.13;5026415;28;20539;-74
2021/09/13 11:12:04;;;;;;;5.80;5.30;;;;;;;22.34;68.50;157110.44;5031128;28;20454;-74
2021/09/13 11:14:40;;;;;;;6.23;5.63;;;;;;;22.43;69.43;157133.91;5033856;28;20943;-74
2021/09/13 11:17:20;;;;;;;5.33;4.83;;;;;;;22.65;70.40;157191.47;5010857;28;20444;-74
2021/09/13 11:20:03;;;;;;;5.70;5.20;;;;;;;22.76;68.95;157220.22;5023467;28;20979;-74
2021/09/13 11:22:45;;;;;;;6.47;5.87;;;;;;;22.89;66.67;157252.84;5021084;28;20447;-75
2021/09/13 11:25:21;;;;;;;6.17;5.30;;;;;;;22.94;67.41;157267.25;5012552;28;20440;-74
2021/09/13 11:28:02;;;;;;;5.33;4.83;;;;;;;22.96;68.14;157272.44;5010417;28;20448;-74
2021/09/13 11:30:42;;;;;;;5.83;5.33;;;;;;;22.99;67.93;157280.28;5011452;28;20460;-74
2021/09/13 11:33:20;;;;;;;6.30;5.47;;;;;;;23.07;66.90;157298.56;5020620;28;20574;-74
2021/09/13 11:35:56;;;;;;;5.67;5.17;;;;;;;23.06;67.28;157296.00;5024265;28;20535;-75
2021/09/13 11:38:31;;;;;;;5.97;5.37;;;;;;;23.06;66.21;157297.25;5019001;28;20836;-74
2021/09/13 11:41:13;;;;;;;5.73;5.20;;;;;;;22.92;66.13;157260.69;5017142;28;20444;-75
2021/09/13 11:44:04;;;;;;;5.97;5.47;;;;;;;22.80;66.01;157230.63;5031116;28;20456;-74
2021/09/13 11:46:59;;;;;;;6.40;5.17;;;;;;;22.84;65.82;157241.13;5020547;28;20539;-74
2021/09/13 11:49:37;;;;;;;5.57;5.07;;;;;;;22.90;66.37;157255.50;5032762;28;20471;-74
2021/09/13 11:52:22;;;;;;;5.50;4.70;;;;;;;23.08;65.89;157301.22;5000925;28;20460;-75
2021/09/13 11:55:02;;;;;;;4.90;4.50;;;;;;;23.24;67.09;157343.03;5017403;28;20499;-75
2021/09/13 11:57:40;;;;;;;5.73;5.23;;;;;;;23.33;65.65;157366.53;5019677;28;20471;-75
2021/09/13 12:00:17;;;;;;;5.70;5.20;;;;;;;23.21;65.62;157336.50;5018698;28;20444;-75
2021/09/13 12:02:55;;;;;;;5.50;5.07;;;;;;;23.28;66.35;157353.47;5035757;28;20415;-74
2021/09/13 12:05:33;;;;;;;6.40;5.63;;;;;;;23.29;65.20;157356.09;5030188;28;20437;-74
2021/09/13 12:08:11;;;;;;;5.80;5.30;;;;;;;23.13;64.76;157314.28;5029282;28;20440;-74
2021/09/13 12:10:48;;;;;;;6.20;5.60;;;;;;;23.02;64.57;157286.81;4999249;28;20531;-74
2021/09/13 12:13:24;;;;;;;5.80;4.77;;;;;;;23.08;63.19;157302.53;5030936;28;20480;-74
2021/09/13 12:16:03;;;;;;;5.70;5.20;;;;;;;23.13;64.54;157314.28;5021306;28;20983;-74
2021/09/13 12:18:39;;;;;;;5.50;5.00;;;;;;;23.12;65.36;157311.63;5032107;28;20443;-74
2021/09/13 12:21:21;;;;;;;5.50;5.00;;;;;;;23.34;64.53;157369.16;5024449;28;20475;-74
2021/09/13 12:23:56;;;;;;;5.00;4.50;;;;;;;23.50;60.80;157411.03;5033258;28;20445;-80